createdAt,value
2022-11-17T00:01:36.363Z,98842.03
2022-11-17T00:04:04.905Z,98836.00
2022-11-17T00:06:33.257Z,98814.81
2022-11-17T00:09:03.064Z,98812.69
2022-11-17T00:11:51.449Z,98799.09
2022-11-17T00:14:34.043Z,98786.63
2022-11-17T00:17:03.423Z,98787.91
2022-11-17T00:19:49.493Z,98783.03
2022-11-17T00:22:17.927Z,98768.03
2022-11-17T00:24:48.862Z,98766.72
2022-11-17T00:27:17.753Z,98756.72
2022-11-17T00:29:46.104Z,98747.47
2022-11-17T00:32:44.678Z,98745.16
2022-11-17T00:35:13.286Z,98743.31
2022-11-17T00:38:04.207Z,98730.09
2022-11-17T00:40:34.193Z,98717.66
2022-11-17T00:43:02.764Z,98720.16
2022-11-17T00:45:31.525Z,98714.53
2022-11-17T00:48:00.110Z,98700.06
2022-11-17T00:50:28.444Z,98701.22
2022-11-17T00:52:56.809Z,98678.53
2022-11-17T00:55:25.303Z,98682.97
2022-11-17T00:57:55.042Z,98704.94
2022-11-17T01:00:23.545Z,98669.13
2022-11-17T01:02:51.906Z,98658.88
2022-11-17T01:05:20.296Z,98652.25
2022-11-17T01:07:48.627Z,98641.72
2022-11-17T01:10:17.152Z,98653.75
2022-11-17T01:12:45.509Z,98637.22
2022-11-17T01:15:15.237Z,98642.22
2022-11-17T01:17:43.582Z,98643.97
2022-11-17T01:20:12.603Z,98648.97
2022-11-17T01:22:40.943Z,98648.34
2022-11-17T01:25:10.269Z,98638.28
2022-11-17T01:27:38.673Z,98628.53
2022-11-17T01:30:08.683Z,98630.72
2022-11-17T01:32:38.409Z,98632.44
2022-11-17T01:35:08.134Z,98619.88
2022-11-17T01:37:36.476Z,98607.09
2022-11-17T01:40:06.398Z,98601.91
2022-11-17T01:42:34.755Z,98594.38
2022-11-17T01:45:05.540Z,98591.28
2022-11-17T01:47:43.866Z,98578.97
2022-11-17T01:50:30.829Z,98557.38
2022-11-17T01:53:02.265Z,98554.84
2022-11-17T01:55:37.317Z,98540.66
2022-11-17T01:58:13.128Z,98538.69
2022-11-17T02:00:42.113Z,98535.97
2022-11-17T02:03:12.232Z,98538.97
2022-11-17T02:05:49.568Z,98539.84
2022-11-17T02:08:19.720Z,98535.72
2022-11-17T02:10:51.858Z,98537.25
2022-11-17T02:13:21.938Z,98532.56
2022-11-17T02:15:50.584Z,98524.47
2022-11-17T02:18:20.977Z,98526.47
2022-11-17T02:21:10.599Z,98529.50
2022-11-17T02:24:13.863Z,98525.19
2022-11-17T02:27:32.037Z,98520.38
2022-11-17T02:34:20.009Z,98516.19
2022-11-17T02:36:58.207Z,98499.22
2022-11-17T02:39:33.096Z,98514.16
2022-11-17T02:42:10.648Z,98488.22
2022-11-17T02:44:47.667Z,98516.63
2022-11-17T02:47:21.456Z,98507.66
2022-11-17T02:49:56.459Z,98497.81
2022-11-17T02:52:25.378Z,98501.50
2022-11-17T02:54:53.868Z,98490.81
2022-11-17T02:57:32.516Z,98484.03
2022-11-17T03:00:07.113Z,98483.81
2022-11-17T03:03:01.236Z,98474.44
2022-11-17T03:05:41.082Z,98471.78
2022-11-17T03:08:30.059Z,98474.13
2022-11-17T03:11:03.996Z,98474.88
2022-11-17T03:13:44.915Z,98471.50
2022-11-17T03:16:26.686Z,98473.72
2022-11-17T03:19:07.575Z,98472.31
2022-11-17T03:21:42.791Z,98461.28
2022-11-17T03:24:17.670Z,98450.09
2022-11-17T03:26:53.166Z,98451.56
2022-11-17T03:29:26.777Z,98463.47
2022-11-17T03:32:03.371Z,98464.84
2022-11-17T03:34:37.029Z,98460.97
2022-11-17T03:37:09.999Z,98452.56
2022-11-17T03:39:42.736Z,98445.22
2022-11-17T03:42:16.848Z,98429.97
2022-11-17T03:44:51.948Z,98427.47
2022-11-17T03:47:25.956Z,98430.69
2022-11-17T03:50:02.653Z,98423.75
2022-11-17T03:52:31.929Z,98415.56
2022-11-17T03:55:00.669Z,98416.44
2022-11-17T04:22:14.021Z,98380.94
2022-11-17T04:24:42.237Z,98367.44
2022-11-17T04:47:44.948Z,98353.81
2022-11-17T04:50:13.272Z,98347.34
2022-11-17T04:52:41.671Z,98354.22
2022-11-17T04:55:10.920Z,98344.72
2022-11-17T04:57:39.274Z,98347.13
2022-11-17T05:00:11.017Z,98336.03
2022-11-17T05:02:39.393Z,98342.13
2022-11-17T05:05:08.926Z,98342.22
2022-11-17T05:07:37.305Z,98338.38
2022-11-17T05:10:07.039Z,98344.25
2022-11-17T05:12:52.869Z,98356.16
2022-11-17T05:15:43.096Z,98364.75
2022-11-17T05:18:10.431Z,98354.69
2022-11-17T05:20:38.831Z,98359.84
2022-11-17T05:23:23.645Z,98358.94
2022-11-17T05:25:55.097Z,98362.50
2022-11-17T05:28:23.462Z,98361.25
2022-11-17T05:30:53.158Z,98357.06
2022-11-17T05:33:21.513Z,98358.56
2022-11-17T05:35:49.866Z,98346.16
2022-11-17T05:38:18.271Z,98335.88
2022-11-17T05:40:46.651Z,98342.38
2022-11-17T05:43:15.020Z,98339.44
2022-11-17T05:45:43.396Z,98342.94
2022-11-17T05:48:13.288Z,98331.84
2022-11-17T05:50:41.691Z,98331.94
2022-11-17T05:53:10.319Z,98332.97
2022-11-17T05:55:38.683Z,98320.13
2022-11-17T05:58:13.555Z,98324.47
2022-11-17T06:00:43.135Z,98315.63
2022-11-17T06:03:17.962Z,98316.53
2022-11-17T06:05:46.414Z,98323.44
2022-11-17T06:08:15.199Z,98319.66
2022-11-17T06:10:44.035Z,98324.91
2022-11-17T06:13:12.384Z,98328.94
2022-11-17T06:15:41.179Z,98330.19
2022-11-17T06:18:15.918Z,98334.59
2022-11-17T06:20:48.538Z,98342.47
2022-11-17T06:23:19.612Z,98346.75
2022-11-17T06:25:48.945Z,98367.31
2022-11-17T06:28:20.278Z,98353.31
2022-11-17T06:30:50.037Z,98361.59
2022-11-17T06:33:20.524Z,98355.97
2022-11-17T06:35:50.901Z,98366.03
2022-11-17T06:38:19.512Z,98354.31
2022-11-17T06:40:48.142Z,98368.72
2022-11-17T06:43:16.986Z,98361.00
2022-11-17T06:45:47.430Z,98359.94
2022-11-17T06:48:18.199Z,98362.38
2022-11-17T06:50:50.495Z,98366.63
2022-11-17T06:53:19.167Z,98368.31
2022-11-17T06:55:50.301Z,98363.44
2022-11-17T06:58:18.938Z,98375.84
2022-11-17T07:00:47.594Z,98383.06
2022-11-17T07:03:16.237Z,98377.06
2022-11-17T07:05:44.842Z,98379.25
2022-11-17T07:08:14.626Z,98383.53
2022-11-17T07:10:49.010Z,98389.88
2022-11-17T07:13:17.971Z,98386.38
2022-11-17T07:15:46.332Z,98382.94
2022-11-17T07:18:14.697Z,98395.09
2022-11-17T07:20:43.039Z,98384.44
2022-11-17T07:23:11.381Z,98386.00
2022-11-17T07:25:41.242Z,98404.19
2022-11-17T07:28:09.717Z,98402.13
2022-11-17T07:30:38.681Z,98409.25
2022-11-17T07:33:07.103Z,98414.25
2022-11-17T07:35:37.508Z,98416.81
2022-11-17T07:38:05.873Z,98424.28
2022-11-17T07:40:34.233Z,98434.78
2022-11-17T07:43:03.926Z,98433.31
2022-11-17T07:45:32.558Z,98440.59
2022-11-17T07:48:03.259Z,98449.88
2022-11-17T07:50:32.183Z,98459.53
2022-11-17T07:53:00.891Z,98456.22
2022-11-17T07:55:29.320Z,98458.75
2022-11-17T07:57:59.560Z,98468.06
2022-11-17T08:00:31.823Z,98462.81
2022-11-17T08:03:03.639Z,98465.44
2022-11-17T08:05:33.007Z,98468.09
2022-11-17T08:08:03.772Z,98464.44
2022-11-17T08:10:32.311Z,98473.84
2022-11-17T08:13:01.861Z,98479.75
2022-11-17T08:15:32.366Z,98479.66
2022-11-17T08:18:02.126Z,98486.59
2022-11-17T08:20:31.025Z,98488.72
2022-11-17T08:22:59.839Z,98483.81
2022-11-17T08:25:29.193Z,98497.31
2022-11-17T08:27:58.708Z,98503.06
2022-11-17T08:30:33.604Z,98504.19
2022-11-17T08:33:02.760Z,98502.44
2022-11-17T08:35:37.330Z,98505.81
2022-11-17T08:38:06.891Z,98510.22
2022-11-17T08:40:35.863Z,98506.88
2022-11-17T08:43:05.147Z,98520.47
2022-11-17T08:45:35.005Z,98510.00
2022-11-17T08:48:04.100Z,98516.47
2022-11-17T08:50:32.476Z,98518.53
2022-11-17T08:53:00.848Z,98528.75
2022-11-17T08:55:29.296Z,98521.69
2022-11-17T08:57:57.756Z,98528.16
2022-11-17T09:00:26.367Z,98525.88
2022-11-17T09:02:56.021Z,98530.19
2022-11-17T09:05:25.102Z,98535.16
2022-11-17T09:07:53.712Z,98540.44
2022-11-17T09:10:22.244Z,98533.31
2022-11-17T09:12:50.564Z,98535.16
2022-11-17T09:15:19.113Z,98540.38
2022-11-17T09:17:48.250Z,98536.94
2022-11-17T09:20:19.145Z,98536.13
2022-11-17T09:22:47.769Z,98539.22
2022-11-17T09:25:16.926Z,98551.56
2022-11-17T09:27:45.272Z,98544.81
2022-11-17T09:30:14.473Z,98547.69
2022-11-17T09:32:42.834Z,98554.06
2022-11-17T09:35:11.346Z,98556.84
2022-11-17T09:37:41.060Z,98563.53
2022-11-17T09:40:16.111Z,98567.13
2022-11-17T09:42:44.938Z,98572.00
2022-11-17T09:45:20.715Z,98578.47
2022-11-17T09:48:18.441Z,98579.69
2022-11-17T09:50:49.975Z,98572.59
2022-11-17T09:53:26.779Z,98576.03
2022-11-17T09:55:59.233Z,98571.19
2022-11-17T09:58:36.055Z,98579.81
2022-11-17T10:01:05.429Z,98582.91
2022-11-17T10:03:41.807Z,98581.66
2022-11-17T10:06:18.155Z,98585.34
2022-11-17T10:09:00.232Z,98585.50
2022-11-17T10:11:35.216Z,98599.34
2022-11-17T10:14:13.156Z,98592.94
2022-11-17T10:16:45.755Z,98595.25
2022-11-17T10:19:19.080Z,98598.44
2022-11-17T10:21:52.933Z,98607.47
2022-11-17T10:24:42.152Z,98607.78
2022-11-17T10:27:22.286Z,98605.72
2022-11-17T10:30:02.161Z,98613.22
2022-11-17T10:32:33.140Z,98610.88
2022-11-17T10:35:17.135Z,98617.16
2022-11-17T10:37:53.806Z,98613.88
2022-11-17T10:40:26.320Z,98612.28
2022-11-17T10:43:05.833Z,98614.44
2022-11-17T10:45:35.268Z,98624.50
2022-11-17T10:48:18.743Z,98613.94
2022-11-17T10:50:55.010Z,98615.88
2022-11-17T10:53:44.519Z,98617.84
2022-11-17T10:56:21.616Z,98617.91
2022-11-17T10:59:02.163Z,98627.19
2022-11-17T11:01:33.699Z,98620.28
2022-11-17T11:04:03.034Z,98627.84
2022-11-17T11:06:34.346Z,98637.69
2022-11-17T11:09:08.164Z,98631.50
2022-11-17T11:11:45.634Z,98650.88
2022-11-17T11:14:19.407Z,98646.78
2022-11-17T11:16:50.773Z,98644.28
2022-11-17T11:19:21.375Z,98646.75
2022-11-17T11:22:24.655Z,98643.56
2022-11-17T11:25:04.354Z,98649.75
2022-11-17T11:27:59.332Z,98650.41
2022-11-17T11:30:28.821Z,98647.38
2022-11-17T11:33:15.996Z,98655.81
2022-11-17T11:36:03.495Z,98660.22
2022-11-17T11:38:53.685Z,98663.38
2022-11-17T11:41:50.162Z,98663.81
2022-11-17T11:44:42.231Z,98669.31
2022-11-17T11:47:25.393Z,98665.84
2022-11-17T11:49:59.040Z,98674.06
2022-11-17T11:52:32.868Z,98678.31
2022-11-17T11:55:03.987Z,98681.63
2022-11-17T11:57:38.753Z,98686.66
2022-11-17T12:00:16.105Z,98684.91
2022-11-17T12:02:54.609Z,98692.34
2022-11-17T12:05:30.484Z,98684.63
2022-11-17T12:08:10.761Z,98693.69
2022-11-17T12:10:47.284Z,98693.59
2022-11-17T12:13:17.960Z,98692.34
2022-11-17T12:15:47.747Z,98691.38
2022-11-17T12:18:33.440Z,98689.78
2022-11-17T12:21:07.064Z,98697.31
2022-11-17T12:24:10.708Z,98686.41
2022-11-17T12:26:39.684Z,98694.53
2022-11-17T12:29:31.998Z,98696.03
2022-11-17T12:32:03.815Z,98695.13
2022-11-17T12:34:35.879Z,98692.41
2022-11-17T12:37:20.244Z,98691.97
2022-11-17T12:40:09.789Z,98695.09
2022-11-17T12:42:58.640Z,98703.78
2022-11-17T12:45:27.020Z,98698.19
2022-11-17T12:48:26.462Z,98696.28
2022-11-17T12:51:01.835Z,98700.47
2022-11-17T12:53:53.341Z,98708.25
2022-11-17T12:56:59.317Z,98702.66
2022-11-17T13:00:05.392Z,98710.47
2022-11-17T13:02:59.805Z,98712.91
2022-11-17T13:05:30.254Z,98715.78
2022-11-17T13:08:24.902Z,98718.03
2022-11-17T13:11:03.676Z,98720.53
2022-11-17T13:13:34.020Z,98723.22
2022-11-17T13:16:06.069Z,98722.09
2022-11-17T13:18:40.387Z,98714.84
2022-11-17T13:21:29.936Z,98717.84
2022-11-17T13:24:00.318Z,98721.53
2022-11-17T13:26:35.814Z,98726.44
2022-11-17T13:29:07.011Z,98719.03
2022-11-17T13:31:35.915Z,98731.56
2022-11-17T13:34:08.790Z,98728.81
2022-11-17T13:36:37.469Z,98736.06
2022-11-17T13:39:05.804Z,98732.59
2022-11-17T13:41:39.550Z,98738.91
2022-11-17T13:44:14.637Z,98739.03
2022-11-17T13:46:43.689Z,98740.66
2022-11-17T13:49:38.011Z,98742.28
2022-11-17T13:52:15.312Z,98745.81
2022-11-17T13:54:45.279Z,98736.38
2022-11-17T13:57:23.864Z,98743.69
2022-11-17T13:59:52.578Z,98750.78
2022-11-17T14:02:26.956Z,98746.72
2022-11-17T14:05:26.681Z,98740.72
2022-11-17T14:07:57.070Z,98744.28
2022-11-17T14:10:31.670Z,98742.84
2022-11-17T14:13:23.743Z,98747.84
2022-11-17T14:15:58.356Z,98754.63
2022-11-17T14:18:37.382Z,98751.44
2022-11-17T14:21:10.433Z,98750.53
2022-11-17T14:23:39.153Z,98751.56
2022-11-17T14:26:14.724Z,98752.94
2022-11-17T14:28:43.787Z,98747.63
2022-11-17T14:31:14.148Z,98755.81
2022-11-17T14:33:42.921Z,98751.84
2022-11-17T14:36:16.497Z,98756.94
2022-11-17T14:38:45.660Z,98752.69
2022-11-17T14:41:16.305Z,98753.41
2022-11-17T14:43:44.892Z,98756.47
2022-11-17T14:46:24.155Z,98758.19
2022-11-17T14:48:53.549Z,98757.63
2022-11-17T14:51:23.820Z,98763.19
2022-11-17T14:53:52.154Z,98757.69
2022-11-17T14:56:23.655Z,98764.97
2022-11-17T14:58:56.592Z,98762.34
2022-11-17T15:01:28.812Z,98765.63
2022-11-17T15:03:58.949Z,98770.69
2022-11-17T15:06:29.311Z,98769.81
2022-11-17T15:09:00.811Z,98776.94
2022-11-17T15:11:36.583Z,98781.75
2022-11-17T15:14:08.229Z,98775.47
2022-11-17T15:16:36.838Z,98776.91
2022-11-17T15:19:06.797Z,98783.47
2022-11-17T15:21:36.801Z,98778.13
2022-11-17T15:24:06.450Z,98783.75
2022-11-17T15:26:35.805Z,98786.16
2022-11-17T15:29:04.438Z,98787.41
2022-11-17T15:31:33.094Z,98790.78
2022-11-17T15:34:03.138Z,98797.84
2022-11-17T15:36:31.914Z,98793.16
2022-11-17T15:39:02.008Z,98805.78
2022-11-17T15:41:32.954Z,98801.19
2022-11-17T15:44:01.931Z,98804.88
2022-11-17T15:46:30.558Z,98800.97
2022-11-17T15:48:59.218Z,98805.16
2022-11-17T15:51:29.163Z,98802.88
2022-11-17T15:54:00.309Z,98808.13
2022-11-17T15:56:31.762Z,98812.22
2022-11-17T15:59:03.289Z,98808.59
2022-11-17T16:01:33.786Z,98813.63
2022-11-17T16:04:04.711Z,98821.88
2022-11-17T16:06:35.388Z,98815.41
2022-11-17T16:09:04.425Z,98826.03
2022-11-17T16:11:34.387Z,98824.47
2022-11-17T16:14:03.519Z,98827.97
2022-11-17T16:16:35.090Z,98832.66
2022-11-17T16:19:04.041Z,98837.78
2022-11-17T16:21:32.776Z,98836.69
2022-11-17T16:24:02.416Z,98841.25
2022-11-17T16:26:31.649Z,98851.56
2022-11-17T16:29:04.200Z,98844.66
2022-11-17T16:31:34.573Z,98855.94
2022-11-17T16:34:05.291Z,98847.75
2022-11-17T16:36:37.113Z,98853.22
2022-11-17T16:39:07.551Z,98854.66
2022-11-17T16:41:38.289Z,98851.19
2022-11-17T16:44:11.848Z,98866.81
2022-11-17T16:46:43.816Z,98858.50
2022-11-17T16:49:14.860Z,98855.31
2022-11-17T16:51:49.282Z,98860.91
2022-11-17T16:54:18.643Z,98859.28
2022-11-17T16:56:47.222Z,98864.09
2022-11-17T16:59:17.619Z,98865.56
2022-11-17T17:01:46.466Z,98864.66
2022-11-17T17:04:15.846Z,98865.00
2022-11-17T17:06:46.337Z,98871.34
2022-11-17T17:09:16.506Z,98870.63
2022-11-17T17:11:45.828Z,98865.13
2022-11-17T17:14:17.187Z,98873.16
2022-11-17T17:16:45.950Z,98868.00
2022-11-17T17:19:16.208Z,98870.91
2022-11-17T17:21:46.035Z,98873.31
2022-11-17T17:24:15.383Z,98878.31
2022-11-17T17:26:43.960Z,98881.47
2022-11-17T17:29:12.947Z,98882.38
2022-11-17T17:31:43.558Z,98888.03
2022-11-17T17:34:15.128Z,98882.63
2022-11-17T17:36:43.923Z,98890.66
2022-11-17T17:39:16.353Z,98896.53
2022-11-17T17:41:46.132Z,98887.75
2022-11-17T17:44:18.059Z,98887.78
2022-11-17T17:46:48.763Z,98891.75
2022-11-17T17:49:18.931Z,98897.06
2022-11-17T17:51:47.833Z,98904.19
2022-11-17T17:54:18.830Z,98900.59
2022-11-17T17:56:48.461Z,98914.50
2022-11-17T17:59:17.734Z,98912.06
2022-11-17T18:01:48.195Z,98907.03
2022-11-17T18:04:17.256Z,98925.19
2022-11-17T18:06:48.259Z,98918.47
2022-11-17T18:09:19.417Z,98922.47
2022-11-17T18:11:50.246Z,98924.53
2022-11-17T18:14:24.352Z,98916.03
2022-11-17T18:16:55.937Z,98928.00
2022-11-17T18:19:29.757Z,98928.19
2022-11-17T18:22:01.345Z,98936.44
2022-11-17T18:24:29.978Z,98942.16
2022-11-17T18:26:58.610Z,98935.81
2022-11-17T18:29:27.298Z,98929.47
2022-11-17T18:31:57.286Z,98934.81
2022-11-17T18:34:26.561Z,98943.22
2022-11-17T18:36:56.805Z,98941.03
2022-11-17T18:39:27.409Z,98944.13
2022-11-17T18:41:56.204Z,98946.88
2022-11-17T18:44:24.575Z,98950.75
2022-11-17T18:46:54.267Z,98949.88
2022-11-17T18:49:26.768Z,98952.44
2022-11-17T18:51:55.414Z,98959.53
2022-11-17T18:54:24.004Z,98953.06
2022-11-17T18:56:52.626Z,98955.72
2022-11-17T18:59:21.181Z,98958.03
2022-11-17T19:01:50.151Z,98961.03
2022-11-17T19:04:18.717Z,98969.19
2022-11-17T19:06:48.481Z,98967.25
2022-11-17T19:09:18.061Z,98974.81
2022-11-17T19:11:46.948Z,98976.69
2022-11-17T19:14:15.551Z,98980.03
2022-11-17T19:16:45.314Z,98979.66
2022-11-17T19:19:15.117Z,98993.41
2022-11-17T19:21:44.705Z,98979.91
2022-11-17T19:24:15.588Z,98987.56
2022-11-17T19:26:43.970Z,98989.91
2022-11-17T19:29:17.013Z,98991.22
2022-11-17T19:31:46.738Z,98995.44
2022-11-17T19:34:15.550Z,99002.69
2022-11-17T19:36:44.627Z,99005.41
2022-11-17T19:39:15.381Z,99007.94
2022-11-17T19:41:45.267Z,99018.00
2022-11-17T19:44:13.826Z,99020.56
2022-11-17T19:46:43.348Z,99025.75
2022-11-17T19:49:13.339Z,99036.31
2022-11-17T19:51:42.328Z,99031.81
2022-11-17T19:54:13.353Z,99039.03
2022-11-17T19:56:43.267Z,99035.56
2022-11-17T19:59:15.987Z,99050.56
2022-11-17T20:01:45.923Z,99042.66
2022-11-17T20:04:14.371Z,99051.66
2022-11-17T20:06:42.785Z,99051.28
2022-11-17T20:09:14.215Z,99051.22
2022-11-17T20:11:44.262Z,99061.09
2022-11-17T20:14:14.418Z,99056.84
2022-11-17T20:16:42.897Z,99065.97
2022-11-17T20:19:12.259Z,99074.41
2022-11-17T20:21:40.595Z,99067.03
2022-11-17T20:24:09.770Z,99077.81
2022-11-17T20:26:40.643Z,99081.41
2022-11-17T20:29:10.635Z,99083.50
2022-11-17T20:31:39.200Z,99081.75
2022-11-17T20:34:07.672Z,99084.31
2022-11-17T20:36:36.331Z,99083.44
2022-11-17T20:39:07.594Z,99082.03
2022-11-17T20:41:36.397Z,99089.72
2022-11-17T20:44:05.399Z,99082.41
2022-11-17T20:46:35.083Z,99089.47
2022-11-17T20:49:03.423Z,99090.22
2022-11-17T20:51:32.273Z,99097.66
2022-11-17T20:54:00.651Z,99093.09
2022-11-17T20:56:28.979Z,99103.00
2022-11-17T20:58:57.487Z,99103.31
2022-11-17T21:01:25.961Z,99108.50
2022-11-17T21:03:55.794Z,99109.59
2022-11-17T21:06:24.305Z,99112.09
2022-11-17T21:08:53.375Z,99122.47
2022-11-17T21:11:42.249Z,99118.09
2022-11-17T21:14:12.637Z,99117.28
2022-11-17T21:16:44.448Z,99124.38
2022-11-17T21:19:15.653Z,99127.81
2022-11-17T21:21:44.467Z,99128.88
2022-11-17T21:24:13.873Z,99127.56
2022-11-17T21:26:42.977Z,99134.88
2022-11-17T21:29:11.403Z,99133.34
2022-11-17T21:31:40.159Z,99141.03
2022-11-17T21:34:14.661Z,99142.50
2022-11-17T21:36:44.396Z,99142.66
2022-11-17T21:39:18.455Z,99141.66
2022-11-17T21:41:47.229Z,99146.09
2022-11-17T21:44:15.621Z,99147.41
2022-11-17T21:46:44.047Z,99143.09
2022-11-17T21:49:12.395Z,99146.81
2022-11-17T21:51:40.724Z,99154.84
2022-11-17T21:54:11.375Z,99156.69
2022-11-17T21:56:40.722Z,99152.22
2022-11-17T21:59:14.066Z,99146.69
2022-11-17T22:01:42.585Z,99146.16
2022-11-17T22:04:13.270Z,99145.47
2022-11-17T22:06:41.613Z,99150.03
2022-11-17T22:09:11.420Z,99153.25
2022-11-17T22:11:40.514Z,99142.28
2022-11-17T22:14:11.842Z,99145.53
2022-11-17T22:16:41.896Z,99146.59
2022-11-17T22:19:11.255Z,99152.63
2022-11-17T22:21:41.532Z,99153.72
2022-11-17T22:24:13.387Z,99155.72
2022-11-17T22:26:44.156Z,99162.34
2022-11-17T22:29:16.025Z,99159.47
2022-11-17T22:31:45.266Z,99172.16
2022-11-17T22:34:14.377Z,99176.00
2022-11-17T22:36:43.138Z,99173.22
2022-11-17T22:39:13.269Z,99170.56
2022-11-17T22:41:41.947Z,99184.56
2022-11-17T22:44:14.645Z,99185.13
2022-11-17T22:46:44.016Z,99188.03
2022-11-17T22:49:12.698Z,99189.78
2022-11-17T22:51:58.322Z,99201.47
2022-11-17T22:54:28.313Z,99199.53
2022-11-17T22:56:56.702Z,99203.94
2022-11-17T22:59:25.538Z,99205.16
2022-11-17T23:01:54.077Z,99207.75
2022-11-17T23:04:23.508Z,99210.66
2022-11-17T23:06:51.964Z,99216.97
2022-11-17T23:09:20.382Z,99215.59
2022-11-17T23:11:50.508Z,99210.53
2022-11-17T23:14:18.886Z,99219.41
2022-11-17T23:16:47.219Z,99217.56
2022-11-17T23:19:16.406Z,99217.06
2022-11-17T23:21:44.961Z,99210.84
2022-11-17T23:24:14.712Z,99219.50
2022-11-17T23:26:44.123Z,99218.31
2022-11-17T23:29:14.226Z,99216.59
2022-11-17T23:31:42.859Z,99218.44
2022-11-17T23:34:12.120Z,99216.38
2022-11-17T23:36:40.701Z,99217.25
2022-11-17T23:39:09.345Z,99223.34
2022-11-17T23:41:37.712Z,99225.63
2022-11-17T23:44:06.670Z,99225.31
2022-11-17T23:46:36.403Z,99228.31
2022-11-17T23:49:05.122Z,99226.75
2022-11-17T23:51:33.562Z,99231.91
2022-11-17T23:54:02.913Z,99232.34
2022-11-17T23:56:34.538Z,99240.28
2022-11-17T23:59:03.619Z,99230.78
